Terminal Aerodrome Forecast
Issued by NWS

Home | Current Version | Previous Version | Text Only | Print | Product List | Glossary On
Versions: 1 2 3 4 5 6 7 8 9 10 11 12 13 14 15 16 17 18 19 20 21 22 23
000
FTUS43 KDLH 191000 AAA
TAFHIB
TAF AMD
KHIB 191001Z 1910/2006 14016G26KT P6SM -RA OVC050
     FM191200 14017G27KT 4SM -RA BR OVC045
     FM191500 16016G26KT P6SM VCSH OVC050
     FM191800 18016G26KT P6SM OVC035
     FM192100 19008KT P6SM SCT035
     FM200300 22005KT 6SM BR SCT250=

USA.gov is the U.S. government's official web portal to all federal, state and local government web resources and services.